LEWISTON (LEW)

Elevation: 1870' · TRINITY R basin · Operator: US Bureau of Reclamation

Provisional data, subject to change.
Query executed Tuesday at 22:34:47   clock

Select a sensor type for a plot of data.
Note: Reservoir Flows are daily averages.

Earlier

Date RES ELE    STORAGE    RES CHG    OUTFLOW    INFLOW    EVAP    RIV REL    SPILL    DIS PWR   
 FEET   AF   AF   CFS   CFS   CFS   CFS   CFS   CFS  
02/04/2015 1901.72 14450 120 327 387 0 313 158 0
02/05/2015 1901.34 14165 -285 644 501 1 314 159 0
02/06/2015 1901.75 14472 307 329 484 0 315 160 0
02/07/2015 1901.03 13933 -539 516 245 1 316 161 0
02/08/2015 1900.68 13675 -258 327 197 0 310 155 0
02/09/2015 1900.76 13734 59 323 356 3 309 154 0
02/10/2015 1900.58 13602 -132 322 256 1 308 153 0
02/11/2015 1901.00 13911 309 321 478 1 307 152 0
02/12/2015 1901.32 14150 239 323 444 1 309 154 0
02/13/2015 1901.55 14322 172 321 412 4 307 152 0
02/14/2015 1901.52 14300 -22 322 312 1 308 153 0
02/15/2015 1901.33 14158 -142 322 252 2 308 153 0
02/16/2015 1901.49 14278 120 322 383 1 308 153 0
02/17/2015 1901.61 14367 89 324 373 4 310 155 0
02/18/2015 1901.62 14375 8 325 331 2 311 156 0
02/19/2015 1901.50 14285 -90 328 285 2 311 156 0
02/20/2015 1901.38 14195 -90 324 280 1 310 155 0
02/21/2015 1901.23 14083 -112 323 269 2 309 154 0
02/22/2015 1901.02 13926 -157 323 247 3 309 154 0
02/23/2015 1900.98 13896 -30 321 308 2 307 152 0
02/24/2015 1900.95 13874 -22 327 316 0 309 154 0
02/25/2015 1900.85 13801 -73 329 296 4 311 156 0
02/26/2015 1900.80 13764 -37 324 307 2 310 155 0
02/27/2015 1900.75 13727 -37 324 306 1 310 155 0
02/28/2015 1900.85 13801 74 395 434 2 309 154 0
03/01/2015 1900.91 13845 44 358 381 1 310 155 0
03/02/2015 1901.01 13918 73 376 415 2 310 155 0
03/03/2015 -- -- -- -- -- -- -- -- --

Later | Latest

Warning! This data is preliminary and subject to revision.

Show LEW Map | Plot LEW Data | 1 Month LEW Data | Real-Time LEW Data | LEW Info